Time;durP1;ratioP1;P1;durP2;ratioP2;P2;SDS_P1;SDS_P2;PMS_P1;PMS_P2;Temp;Humidity;BMP_temperature;BMP_pressure;BME280_temperature;BME280_humidity;BME280_pressure;Samples;Min_cycle;Max_cycle;Signal;HPM_P1;HPM_P2
2022/09/09 00:00:12;;;;;;;2.80;1.63;;;;;;;8.29;60.16;100554.25;5016683;28;20109;-54
2022/09/09 00:02:39;;;;;;;1.63;1.50;;;;;;;8.28;60.45;100560.53;5012641;28;20108;-52
2022/09/09 00:05:36;;;;;;;2.58;1.70;;;;;;;8.39;60.57;100563.41;5019891;28;20033;-53
2022/09/09 00:08:06;;;;;;;3.03;1.90;;;;;;;8.31;60.25;100571.03;5031327;28;20049;-51
2022/09/09 00:10:33;;;;;;;3.75;1.63;;;;;;;8.28;60.32;100571.22;5029136;28;20029;-54
2022/09/09 00:13:08;;;;;;;3.47;1.73;;;;;;;8.30;60.45;100570.16;5013523;28;20406;-52
2022/09/09 00:15:36;;;;;;;4.00;1.80;;;;;;;8.28;60.33;100565.88;5012019;28;20045;-51
2022/09/09 00:18:11;;;;;;;3.08;1.80;;;;;;;8.30;60.65;100563.97;5025728;28;20377;-57
2022/09/09 00:20:50;;;;;;;2.72;1.90;;;;;;;8.26;60.81;100567.78;5031847;28;20112;-51
2022/09/09 00:23:28;;;;;;;3.60;2.00;;;;;;;8.25;60.80;100576.72;5030976;28;20038;-52
2022/09/09 00:26:12;;;;;;;3.33;1.95;;;;;;;8.21;60.76;100578.72;5011658;28;20045;-48
2022/09/09 00:29:12;;;;;;;2.50;2.00;;;;;;;8.22;60.87;100566.25;5011805;28;20447;-48
2022/09/09 00:31:38;;;;;;;3.63;1.88;;;;;;;8.02;60.77;100560.25;5025698;28;20057;-52
2022/09/09 00:34:12;;;;;;;4.13;1.90;;;;;;;8.11;60.83;100580.22;5011476;28;20033;-51
2022/09/09 00:36:39;;;;;;;2.40;1.80;;;;;;;8.05;61.11;100582.25;5021691;28;20576;-50
2022/09/09 00:39:05;;;;;;;1.90;1.60;;;;;;;8.04;61.09;100579.69;5030456;28;20061;-51
2022/09/09 00:41:54;;;;;;;3.45;1.73;;;;;;;8.15;61.00;100581.75;5031734;28;20026;-49
2022/09/09 00:44:35;;;;;;;2.50;1.75;;;;;;;8.10;60.81;100584.66;5030265;28;20040;-52
2022/09/09 00:47:22;;;;;;;2.30;2.10;;;;;;;8.07;61.05;100587.53;5031283;28;20105;-54
2022/09/09 00:49:50;;;;;;;4.10;2.10;;;;;;;8.06;60.88;100593.81;5017847;28;20494;-53
2022/09/09 00:52:31;;;;;;;3.47;2.30;;;;;;;8.05;61.13;100587.59;5011088;28;20449;-48
2022/09/09 00:55:25;;;;;;;4.72;2.40;;;;;;;8.06;61.50;100593.81;5017047;28;20397;-56
2022/09/09 00:57:52;;;;;;;4.80;2.25;;;;;;;7.94;61.50;100592.69;5030760;28;20081;-53
2022/09/09 01:00:24;;;;;;;4.43;2.65;;;;;;;7.83;61.66;100581.78;5029695;28;20037;-52
2022/09/09 01:03:08;;;;;;;3.20;2.13;;;;;;;8.00;61.61;100594.16;5010985;28;20065;-50
2022/09/09 01:05:46;;;;;;;3.38;2.28;;;;;;;7.97;61.39;100597.84;5010941;28;20382;-58
2022/09/09 01:08:52;;;;;;;4.85;2.63;;;;;;;8.05;61.29;100608.09;5026889;28;20041;-48
2022/09/09 01:11:37;;;;;;;3.80;2.47;;;;;;;7.97;61.24;100605.00;5030799;28;20091;-51
2022/09/09 01:14:33;;;;;;;3.85;2.40;;;;;;;7.99;61.33;100606.63;5023620;28;20107;-49
2022/09/09 01:17:32;;;;;;;2.72;2.25;;;;;;;7.94;61.31;100602.50;5011429;28;20045;-52
2022/09/09 01:20:12;;;;;;;2.95;2.30;;;;;;;7.83;61.40;100611.97;5011247;28;20044;-49
2022/09/09 01:22:56;;;;;;;4.32;2.30;;;;;;;7.87;61.39;100613.50;5010647;28;20037;-53
2022/09/09 01:25:40;;;;;;;2.90;2.42;;;;;;;7.87;61.42;100620.66;5010678;28;20041;-51
2022/09/09 01:28:11;;;;;;;3.95;2.20;;;;;;;7.73;61.46;100613.47;5017852;28;20025;-59
2022/09/09 01:30:40;;;;;;;2.90;2.05;;;;;;;7.71;61.70;100618.84;5030850;28;20043;-51
2022/09/09 01:33:09;;;;;;;3.55;2.60;;;;;;;7.63;61.74;100612.22;5030511;28;20025;-59
2022/09/09 01:35:55;;;;;;;3.03;2.33;;;;;;;7.60;62.08;100618.63;5011356;28;20128;-53
2022/09/09 01:38:23;;;;;;;5.15;2.40;;;;;;;7.54;62.50;100619.81;5009502;28;20406;-52
2022/09/09 01:40:51;;;;;;;3.88;2.40;;;;;;;7.41;62.71;100618.75;5023274;28;20114;-52
2022/09/09 01:43:18;;;;;;;4.18;2.30;;;;;;;7.19;62.90;100603.94;5029044;28;20112;-50
2022/09/09 01:45:46;;;;;;;2.58;2.20;;;;;;;7.33;63.20;100622.69;5025975;28;20030;-51
2022/09/09 01:48:11;;;;;;;3.85;2.55;;;;;;;7.28;63.38;100623.88;5010909;28;20029;-51
2022/09/09 01:50:37;;;;;;;5.32;2.45;;;;;;;7.32;63.49;100628.97;5010786;28;20462;-51
2022/09/09 01:53:03;;;;;;;4.47;2.58;;;;;;;7.34;63.05;100639.53;5029331;28;20470;-49
2022/09/09 01:55:38;;;;;;;4.40;2.53;;;;;;;7.40;63.23;100635.66;5034537;28;20056;-54
2022/09/09 01:58:40;;;;;;;4.03;2.63;;;;;;;7.48;63.23;100644.13;5025647;28;20054;-54
2022/09/09 02:01:25;;;;;;;3.67;2.25;;;;;;;7.51;63.08;100646.63;5013324;28;20034;-51
2022/09/09 02:03:57;;;;;;;5.55;2.35;;;;;;;7.49;62.87;100639.66;5014472;28;20076;-50
2022/09/09 02:06:33;;;;;;;4.97;2.40;;;;;;;7.51;62.85;100641.28;5032352;28;20050;-51
2022/09/09 02:09:04;;;;;;;3.22;2.50;;;;;;;7.50;62.65;100652.91;5034422;28;20065;-53
2022/09/09 02:11:30;;;;;;;6.25;2.30;;;;;;;7.51;62.79;100645.75;5028476;28;20041;-50
2022/09/09 02:14:09;;;;;;;4.85;2.28;;;;;;;7.59;63.08;100644.38;5033845;28;20043;-53
2022/09/09 02:17:07;;;;;;;3.70;2.20;;;;;;;7.66;62.82;100650.25;5034524;28;20029;-54
2022/09/09 02:19:37;;;;;;;5.72;2.40;;;;;;;7.53;62.71;100636.75;5022094;28;20185;-53
2022/09/09 02:22:03;;;;;;;6.97;2.92;;;;;;;7.38;62.44;100625.13;5013994;28;20449;-51
2022/09/09 02:24:34;;;;;;;6.57;3.45;;;;;;;7.54;62.71;100650.91;5015361;28;20048;-47
2022/09/09 02:27:04;;;;;;;7.40;3.65;;;;;;;7.52;63.23;100655.47;5033387;28;20033;-51
2022/09/09 02:29:36;;;;;;;4.65;3.30;;;;;;;7.49;63.02;100653.84;5024590;28;20128;-52
2022/09/09 02:32:07;;;;;;;5.85;3.42;;;;;;;7.42;63.07;100661.31;5026165;28;20046;-52
2022/09/09 02:34:37;;;;;;;8.80;3.33;;;;;;;7.35;63.19;100656.38;5033424;28;20034;-49
2022/09/09 02:37:03;;;;;;;4.55;3.30;;;;;;;7.28;63.55;100662.03;5026312;28;20068;-53
2022/09/09 02:39:29;;;;;;;5.25;3.40;;;;;;;7.23;63.49;100661.41;5013351;28;20076;-53
2022/09/09 02:41:54;;;;;;;5.50;3.60;;;;;;;7.20;63.53;100666.91;5013916;28;20447;-48
2022/09/09 02:44:20;;;;;;;7.60;4.03;;;;;;;7.14;63.73;100668.09;5030721;28;20036;-51
2022/09/09 02:46:51;;;;;;;5.45;3.10;;;;;;;7.12;64.42;100682.44;5033175;28;20029;-50
2022/09/09 02:49:37;;;;;;;6.28;3.33;;;;;;;7.04;64.40;100675.72;5024962;28;20061;-52
2022/09/09 02:52:08;;;;;;;5.68;3.10;;;;;;;6.94;64.71;100684.25;5013529;28;20030;-53
2022/09/09 02:54:37;;;;;;;6.45;3.75;;;;;;;6.79;65.16;100683.25;5016107;28;20116;-50
2022/09/09 02:57:16;;;;;;;5.40;3.25;;;;;;;6.79;65.30;100691.22;5033505;28;20116;-52
2022/09/09 02:59:44;;;;;;;4.90;3.38;;;;;;;6.66;65.43;100691.00;5032752;28;20541;-53
2022/09/09 03:02:11;;;;;;;6.53;3.53;;;;;;;6.56;66.10;100694.09;5016843;28;20041;-52
2022/09/09 03:04:37;;;;;;;6.00;3.03;;;;;;;6.50;66.31;100694.41;5013675;28;20044;-49
2022/09/09 03:07:03;;;;;;;7.43;3.08;;;;;;;6.47;66.39;100692.75;5018267;28;20083;-54
2022/09/09 03:09:29;;;;;;;5.07;3.25;;;;;;;6.43;66.82;100700.97;5032840;28;20099;-52
2022/09/09 03:11:55;;;;;;;9.30;3.17;;;;;;;6.35;66.96;100690.72;5032698;28;20507;-52
2022/09/09 03:14:24;;;;;;;4.45;2.80;;;;;;;6.37;66.82;100704.78;5027993;28;20029;-52
2022/09/09 03:16:53;;;;;;;4.72;3.00;;;;;;;6.40;67.15;100707.31;5032518;28;20033;-54
2022/09/09 03:19:19;;;;;;;3.60;2.80;;;;;;;6.39;66.99;100691.41;5032367;28;20374;-52
2022/09/09 03:21:46;;;;;;;7.72;3.33;;;;;;;6.63;66.85;100707.09;5019974;28;20037;-49
2022/09/09 03:24:13;;;;;;;5.72;3.20;;;;;;;6.83;65.97;100712.28;5013344;28;20187;-60
2022/09/09 03:26:40;;;;;;;5.07;3.17;;;;;;;7.11;65.63;100691.38;5012791;28;20033;-50
2022/09/09 03:29:06;;;;;;;4.65;3.22;;;;;;;7.94;63.20;100698.50;5027253;28;20399;-52
2022/09/09 03:31:33;;;;;;;9.75;3.42;;;;;;;9.07;59.35;100699.19;5032546;28;20029;-49
2022/09/09 03:33:58;;;;;;;8.50;3.47;;;;;;;10.14;55.87;100687.19;5026209;28;20036;-49
2022/09/09 03:36:26;;;;;;;8.85;3.33;;;;;;;11.05;53.32;100704.44;5012586;28;20038;-50
2022/09/09 03:38:52;;;;;;;6.88;2.90;;;;;;;11.90;50.72;100698.50;5012280;28;20034;-52
2022/09/09 03:41:18;;;;;;;4.28;3.20;;;;;;;12.82;48.33;100713.28;5029380;28;20565;-51
2022/09/09 03:43:43;;;;;;;5.53;2.97;;;;;;;13.58;46.33;100704.78;5031196;28;20033;-54
2022/09/09 03:46:09;;;;;;;5.00;2.83;;;;;;;14.14;44.71;100710.25;5024726;28;20025;-55
2022/09/09 03:48:34;;;;;;;8.10;3.38;;;;;;;14.73;43.38;100714.41;5012405;28;20038;-53
2022/09/09 03:51:01;;;;;;;5.00;2.83;;;;;;;15.34;41.74;100704.72;5012977;28;20026;-49
2022/09/09 03:53:27;;;;;;;5.72;2.88;;;;;;;15.90;40.38;100716.06;5031045;28;20033;-49
2022/09/09 03:55:54;;;;;;;7.72;2.85;;;;;;;16.39;39.39;100715.34;5032378;28;20036;-48
2022/09/09 03:58:23;;;;;;;5.88;2.70;;;;;;;16.84;38.47;100718.50;5031040;28;20038;-49
2022/09/09 04:00:57;;;;;;;6.43;3.00;;;;;;;17.45;37.49;100711.88;5012547;28;20041;-54
2022/09/09 04:03:24;;;;;;;5.40;2.90;;;;;;;17.76;36.31;100722.47;5012625;28;20034;-56
2022/09/09 04:05:53;;;;;;;6.20;3.22;;;;;;;18.18;35.64;100718.44;5022376;28;20475;-57
2022/09/09 04:08:20;;;;;;;5.80;2.95;;;;;;;18.62;34.65;100715.00;5031900;28;20056;-57
2022/09/09 04:10:47;;;;;;;5.00;3.22;;;;;;;19.14;33.69;100712.56;5027630;28;20145;-54
2022/09/09 04:13:17;;;;;;;7.70;2.83;;;;;;;19.71;32.48;100716.66;5012605;28;20413;-51
2022/09/09 04:15:44;;;;;;;4.15;2.78;;;;;;;20.17;31.87;100709.06;5011881;28;20041;-52
2022/09/09 04:18:11;;;;;;;5.28;3.00;;;;;;;20.72;30.83;100705.94;5027636;28;20068;-54
2022/09/09 04:20:37;;;;;;;6.70;3.25;;;;;;;21.38;29.47;100703.19;5031082;28;20052;-55
2022/09/09 04:23:03;;;;;;;5.97;2.75;;;;;;;22.08;28.39;100723.44;5024056;28;20639;-49
2022/09/09 04:25:28;;;;;;;4.65;2.88;;;;;;;22.74;27.23;100721.34;5011810;28;20099;-53
2022/09/09 04:27:55;;;;;;;4.47;2.63;;;;;;;23.53;26.21;100731.06;5012830;28;20450;-57
2022/09/09 04:30:20;;;;;;;5.82;2.50;;;;;;;24.25;24.86;100725.09;5018575;28;20489;-51
2022/09/09 04:32:46;;;;;;;8.18;2.60;;;;;;;24.89;24.12;100715.28;5013468;28;20030;-56
2022/09/09 04:35:12;;;;;;;4.00;2.53;;;;;;;25.28;23.74;100711.16;5011696;28;20041;-55
2022/09/09 04:37:37;;;;;;;9.93;2.80;;;;;;;26.03;22.74;100717.91;5011303;28;20030;-57
2022/09/09 04:40:03;;;;;;;5.50;2.58;;;;;;;26.26;21.76;100727.75;5013705;28;20444;-53
2022/09/09 04:42:29;;;;;;;4.07;2.40;;;;;;;26.52;21.33;100727.00;5021114;28;20037;-53
2022/09/09 04:44:54;;;;;;;7.28;2.40;;;;;;;26.92;21.17;100723.47;5011775;28;20043;-55
2022/09/09 04:47:19;;;;;;;6.15;2.40;;;;;;;27.40;20.23;100716.06;5027738;28;20446;-50
2022/09/09 04:49:45;;;;;;;2.90;2.20;;;;;;;27.65;19.85;100724.50;5029520;28;20076;-53
2022/09/09 04:52:11;;;;;;;6.22;2.15;;;;;;;27.90;19.63;100719.13;5025223;28;20079;-50
2022/09/09 04:54:36;;;;;;;2.10;1.50;;;;;;;28.58;18.75;100722.44;5031262;28;20219;-52
2022/09/09 04:57:02;;;;;;;5.22;1.80;;;;;;;29.48;18.10;100725.13;5024101;28;21521;-50
2022/09/09 04:59:27;;;;;;;2.83;1.83;;;;;;;29.96;17.21;100726.28;5029063;28;20107;-53
2022/09/09 05:01:54;;;;;;;5.30;1.83;;;;;;;30.31;16.61;100727.56;5027931;28;20048;-54
2022/09/09 05:04:21;;;;;;;6.40;2.08;;;;;;;30.33;16.77;100719.88;5030948;28;20059;-57
2022/09/09 05:06:46;;;;;;;5.55;2.10;;;;;;;30.54;16.69;100726.81;5020382;28;20402;-53
2022/09/09 05:09:12;;;;;;;5.53;1.27;;;;;;;30.63;16.33;100735.66;5011374;28;20069;-54
2022/09/09 05:11:38;;;;;;;3.10;1.45;;;;;;;30.65;15.93;100731.56;5024890;28;20053;-55
2022/09/09 05:14:04;;;;;;;4.95;1.17;;;;;;;31.02;16.05;100738.84;5014315;28;20033;-51
2022/09/09 05:16:30;;;;;;;2.63;1.00;;;;;;;31.33;15.18;100745.13;5011499;28;20030;-55
2022/09/09 05:18:56;;;;;;;3.33;1.08;;;;;;;31.68;14.81;100742.63;5011259;28;20446;-53
2022/09/09 05:21:24;;;;;;;4.70;1.27;;;;;;;32.05;14.54;100753.38;5020389;28;20034;-54
2022/09/09 05:23:51;;;;;;;2.08;1.30;;;;;;;32.32;14.48;100744.53;5030381;28;20025;-55
2022/09/09 05:26:19;;;;;;;3.13;1.35;;;;;;;32.69;14.38;100752.44;5022732;28;20888;-52
2022/09/09 05:28:45;;;;;;;4.03;1.35;;;;;;;33.35;13.52;100751.91;5012443;28;20102;-52
2022/09/09 05:31:12;;;;;;;3.42;1.17;;;;;;;33.95;13.26;100744.94;5020976;28;20034;-53
2022/09/09 05:33:42;;;;;;;2.97;1.30;;;;;;;34.36;12.52;100751.03;5015992;28;20030;-56
2022/09/09 05:36:13;;;;;;;4.65;1.10;;;;;;;34.64;12.41;100760.25;5010619;28;20029;-59
2022/09/09 05:38:39;;;;;;;3.25;1.15;;;;;;;34.43;12.49;100753.63;5015705;28;20060;-54
2022/09/09 05:41:05;;;;;;;4.78;1.40;;;;;;;34.71;12.33;100754.47;5022681;28;20416;-54
2022/09/09 05:43:32;;;;;;;2.90;1.27;;;;;;;35.60;11.63;100746.56;5009954;28;20040;-54
2022/09/09 05:46:07;;;;;;;4.60;1.50;;;;;;;36.10;11.19;100748.22;5023311;28;20099;-54
2022/09/09 05:48:37;;;;;;;4.47;1.50;;;;;;;35.72;11.67;100757.47;5018343;28;20037;-55
2022/09/09 05:51:03;;;;;;;2.95;1.20;;;;;;;35.68;11.36;100744.38;5030463;28;20124;-51
2022/09/09 05:53:36;;;;;;;2.90;1.30;;;;;;;35.70;11.19;100754.13;5018697;28;20056;-53
2022/09/09 05:56:07;;;;;;;2.72;1.10;;;;;;;36.55;10.73;100757.84;5009680;28;20387;-51
2022/09/09 05:58:34;;;;;;;2.72;0.90;;;;;;;36.01;10.61;100753.44;5013642;28;20381;-51
2022/09/09 06:01:04;;;;;;;6.97;1.48;;;;;;;36.49;10.51;100754.16;5017202;28;20022;-60
2022/09/09 06:03:30;;;;;;;1.65;1.20;;;;;;;37.58;9.97;100740.22;5013707;28;20112;-59
2022/09/09 06:06:00;;;;;;;1.75;1.23;;;;;;;37.88;9.79;100754.38;5017197;28;20133;-60
2022/09/09 06:08:26;;;;;;;2.85;1.13;;;;;;;37.76;9.79;100758.34;5028115;28;20033;-58
2022/09/09 06:10:52;;;;;;;4.70;1.48;;;;;;;37.97;9.09;100735.09;5009399;28;20128;-64
2022/09/09 06:13:17;;;;;;;4.38;1.40;;;;;;;38.29;9.21;100765.38;5010561;28;20061;-58
2022/09/09 06:15:51;;;;;;;4.03;1.30;;;;;;;38.41;9.57;100767.00;5009040;28;20509;-59
2022/09/09 06:18:18;;;;;;;2.37;1.33;;;;;;;38.28;9.33;100776.84;5009598;28;20049;-55
2022/09/09 06:20:54;;;;;;;2.90;1.23;;;;;;;38.70;9.21;100781.09;5020066;28;20021;-55
2022/09/09 06:23:20;;;;;;;1.50;0.90;;;;;;;38.34;8.91;100770.09;5013094;28;20172;-57
2022/09/09 06:25:45;;;;;;;2.95;1.13;;;;;;;38.79;8.82;100772.91;5025055;28;20526;-60
2022/09/09 06:28:11;;;;;;;1.00;0.90;;;;;;;39.03;8.20;100770.22;5028339;28;20433;-60
2022/09/09 06:30:36;;;;;;;3.45;1.35;;;;;;;38.57;8.25;100756.56;5021583;28;20414;-59
2022/09/09 06:33:02;;;;;;;3.28;1.60;;;;;;;37.97;8.60;100747.09;5027955;28;20025;-54
2022/09/09 06:35:28;;;;;;;2.78;1.25;;;;;;;38.12;9.06;100767.72;5018844;28;20037;-56
2022/09/09 06:37:53;;;;;;;6.05;1.40;;;;;;;38.77;8.50;100776.00;5031630;28;20041;-54
2022/09/09 06:40:19;;;;;;;2.53;1.15;;;;;;;38.77;8.12;100772.38;5033747;28;20033;-54
2022/09/09 06:42:44;;;;;;;1.70;1.20;;;;;;;38.62;8.27;100776.13;5018664;28;20153;-57
2022/09/09 06:45:10;;;;;;;2.47;1.08;;;;;;;38.41;8.46;100776.22;5024292;28;20120;-61
2022/09/09 06:47:36;;;;;;;1.52;0.75;;;;;;;38.57;8.51;100756.56;5025497;28;20100;-60
2022/09/09 06:50:01;;;;;;;1.10;1.00;;;;;;;39.21;7.71;100755.81;5021351;28;20478;-74
2022/09/09 06:52:28;;;;;;;1.85;0.70;;;;;;;36.35;9.38;100778.97;5030284;28;20037;-52
2022/09/09 06:54:54;;;;;;;2.65;0.70;;;;;;;34.40;10.93;100793.88;5030001;28;20281;-56
2022/09/09 06:57:19;;;;;;;2.10;0.60;;;;;;;34.42;10.74;100794.44;5033064;28;20037;-55
2022/09/09 06:59:45;;;;;;;0.50;0.50;;;;;;;31.28;13.36;100792.06;5031381;28;20029;-55
2022/09/09 07:02:11;;;;;;;0.85;0.60;;;;;;;27.99;15.70;100801.47;5031816;28;20104;-57
2022/09/09 07:04:36;;;;;;;1.05;0.73;;;;;;;25.44;18.25;100813.31;5033027;28;20033;-69
2022/09/09 07:07:02;;;;;;;2.75;0.80;;;;;;;27.84;16.30;100791.53;5027782;28;20483;-67
2022/09/09 07:09:29;;;;;;;1.10;0.70;;;;;;;28.26;15.81;100795.91;5031133;28;20037;-58
2022/09/09 07:11:54;;;;;;;2.33;0.60;;;;;;;26.72;17.29;100798.44;5033071;28;20038;-55
2022/09/09 07:14:21;;;;;;;2.78;0.63;;;;;;;25.32;18.85;100804.78;5032847;28;20026;-55
2022/09/09 07:16:47;;;;;;;1.30;0.57;;;;;;;23.77;20.14;100811.13;5030241;28;20041;-66
2022/09/09 07:19:14;;;;;;;3.42;0.60;;;;;;;22.35;22.12;100821.31;5010804;28;20157;-64
2022/09/09 07:21:43;;;;;;;2.50;0.80;;;;;;;21.05;24.03;100815.72;5030712;28;20045;-67
2022/09/09 07:24:09;;;;;;;0.82;0.60;;;;;;;22.80;22.04;100810.72;5031353;28;20045;-66
2022/09/09 07:26:36;;;;;;;2.70;0.90;;;;;;;23.91;20.68;100810.28;5030966;28;20037;-68
2022/09/09 07:29:01;;;;;;;2.40;0.70;;;;;;;23.04;21.10;100776.91;5014625;28;20041;-69
2022/09/09 07:31:33;;;;;;;2.92;0.93;;;;;;;22.43;22.26;100815.84;5032347;28;20373;-66
2022/09/09 07:34:00;;;;;;;2.42;0.73;;;;;;;23.06;21.74;100812.25;5031259;28;20057;-61
2022/09/09 07:36:28;;;;;;;0.90;0.63;;;;;;;22.76;21.36;100825.72;5032835;28;20033;-61
2022/09/09 07:38:59;;;;;;;3.25;0.80;;;;;;;24.35;20.36;100825.00;5018680;28;20034;-59
2022/09/09 07:41:34;;;;;;;1.15;0.80;;;;;;;27.74;16.29;100822.25;5011243;28;20482;-57
2022/09/09 07:44:03;;;;;;;0.98;0.70;;;;;;;26.71;16.58;100821.47;5013337;28;20038;-57
2022/09/09 07:46:29;;;;;;;2.72;0.85;;;;;;;24.76;18.67;100820.88;5029824;28;20086;-56
2022/09/09 07:48:56;;;;;;;2.53;1.00;;;;;;;23.18;21.14;100839.97;5028299;28;20037;-60
2022/09/09 07:51:27;;;;;;;1.20;1.10;;;;;;;22.08;22.70;100846.16;5017736;28;20034;-57
2022/09/09 07:53:55;;;;;;;1.67;1.48;;;;;;;20.94;23.68;100837.81;5032277;28;20029;-58
2022/09/09 07:56:23;;;;;;;2.60;1.45;;;;;;;20.23;24.23;100849.78;5032134;28;20032;-58
2022/09/09 07:58:50;;;;;;;1.92;0.43;;;;;;;20.17;24.41;100844.16;5019060;28;20432;-57
2022/09/09 08:01:22;;;;;;;1.13;0.90;;;;;;;20.29;24.74;100853.72;5017276;28;20379;-54
2022/09/09 08:04:00;;;;;;;0.90;0.80;;;;;;;19.67;24.99;100854.69;5026137;28;20037;-56
2022/09/09 08:06:27;;;;;;;1.48;0.60;;;;;;;19.04;25.73;100843.78;5016844;28;20050;-56
2022/09/09 08:08:54;;;;;;;1.50;0.60;;;;;;;18.88;25.52;100832.75;5027342;28;20060;-56
2022/09/09 08:11:24;;;;;;;5.07;0.50;;;;;;;18.89;25.47;100839.88;5029522;28;20029;-53
2022/09/09 08:13:51;;;;;;;0.75;0.47;;;;;;;18.76;25.23;100835.66;5030332;28;20033;-55
2022/09/09 08:16:21;;;;;;;2.92;0.70;;;;;;;18.58;26.25;100832.91;5026495;28;20478;-55
2022/09/09 08:18:47;;;;;;;1.30;0.60;;;;;;;18.33;27.37;100838.06;5028249;28;20120;-56
2022/09/09 08:21:17;;;;;;;1.30;0.70;;;;;;;18.01;28.44;100836.63;5031011;28;20034;-59
2022/09/09 08:23:45;;;;;;;3.05;0.90;;;;;;;17.68;28.77;100840.66;5013432;28;20034;-57
2022/09/09 08:26:23;;;;;;;1.35;0.63;;;;;;;17.57;28.52;100842.53;5011841;28;20175;-57
2022/09/09 08:28:53;;;;;;;1.20;0.80;;;;;;;17.44;28.83;100841.97;5027838;28;20041;-63
2022/09/09 08:31:20;;;;;;;2.92;1.75;;;;;;;17.08;29.77;100846.09;5030313;28;20112;-61
2022/09/09 08:33:46;;;;;;;4.25;3.85;;;;;;;16.83;30.13;100843.91;5031186;28;20040;-61
2022/09/09 08:36:15;;;;;;;4.50;2.72;;;;;;;16.73;30.41;100820.41;5026089;28;20117;-61
2022/09/09 08:38:41;;;;;;;1.65;1.40;;;;;;;16.82;30.41;100848.47;5011434;28;20116;-61
2022/09/09 08:41:31;;;;;;;1.02;0.90;;;;;;;16.75;30.16;100850.88;5014930;28;20064;-60
2022/09/09 08:44:22;;;;;;;3.67;0.90;;;;;;;16.54;30.95;100855.50;5014278;28;20057;-59
2022/09/09 08:47:02;;;;;;;2.20;0.50;;;;;;;16.24;31.62;100857.25;5014590;28;20720;-57
2022/09/09 08:49:56;;;;;;;2.70;0.80;;;;;;;16.19;31.66;100858.53;5018184;28;20544;-58
2022/09/09 08:52:38;;;;;;;1.70;0.60;;;;;;;16.03;32.05;100866.25;5011558;28;20109;-57
2022/09/09 08:55:27;;;;;;;0.90;0.70;;;;;;;15.87;32.55;100864.84;5019905;28;20030;-58
2022/09/09 08:57:56;;;;;;;3.20;0.93;;;;;;;15.49;33.07;100850.13;5017317;28;20117;-55
2022/09/09 09:00:28;;;;;;;1.05;0.60;;;;;;;15.39;33.27;100851.88;5022011;28;20494;-55
2022/09/09 09:03:15;;;;;;;1.52;0.70;;;;;;;15.64;32.36;100864.97;5015910;28;20034;-55
2022/09/09 09:06:01;;;;;;;1.65;0.88;;;;;;;15.84;32.46;100867.81;5021836;28;20411;-56
2022/09/09 09:08:33;;;;;;;0.85;0.60;;;;;;;15.69;32.33;100866.47;5030101;28;20045;-55
2022/09/09 09:11:00;;;;;;;1.27;0.80;;;;;;;15.71;32.47;100872.56;5011429;28;20041;-54
2022/09/09 09:13:53;;;;;;;0.80;0.65;;;;;;;16.22;31.59;100873.59;5011039;28;20104;-58
2022/09/09 09:16:24;;;;;;;1.27;0.75;;;;;;;16.50;31.37;100865.72;5013713;28;20041;-58
2022/09/09 09:18:50;;;;;;;2.90;1.00;;;;;;;16.36;31.41;100856.16;5023343;28;20501;-52
2022/09/09 09:21:41;;;;;;;1.05;0.70;;;;;;;16.19;31.46;100834.22;5010404;28;20140;-56
2022/09/09 09:24:19;;;;;;;0.90;0.73;;;;;;;16.35;31.68;100858.03;5012441;28;20068;-54
2022/09/09 09:26:44;;;;;;;0.73;0.60;;;;;;;16.36;32.02;100853.44;5023808;28;20088;-69
2022/09/09 09:29:18;;;;;;;3.08;0.70;;;;;;;16.27;32.26;100835.38;5016708;28;20030;-69
2022/09/09 09:31:55;;;;;;;3.60;0.95;;;;;;;16.44;31.84;100860.88;5010802;28;20176;-56
2022/09/09 09:34:21;;;;;;;2.50;0.70;;;;;;;16.23;31.70;100871.75;5020767;28;20437;-56
2022/09/09 09:36:53;;;;;;;3.50;0.70;;;;;;;16.11;31.88;100866.44;5024464;28;20112;-58
2022/09/09 09:39:38;;;;;;;0.77;0.77;;;;;;;16.35;31.36;100859.84;5010824;28;20042;-58
2022/09/09 09:42:13;;;;;;;3.33;0.70;;;;;;;16.20;31.71;100865.63;5022650;28;20109;-59
2022/09/09 09:44:40;;;;;;;;;;;;;;;16.49;30.97;100845.97;5030646;28;20037;-55
2022/09/09 09:47:15;;;;;;;;;;;;;;;16.44;30.82;100855.47;5029302;28;19921;-59
2022/09/09 09:50:02;;;;;;;3.47;0.60;;;;;;;15.67;31.86;100861.19;5026575;28;19917;-59
2022/09/09 09:52:31;;;;;;;1.23;0.85;;;;;;;15.22;32.63;100862.25;5026838;28;20043;-57
2022/09/09 09:54:59;;;;;;;1.88;0.60;;;;;;;15.17;32.64;100864.47;5019314;28;20410;-72
2022/09/09 09:57:29;;;;;;;0.90;0.60;;;;;;;15.57;32.61;100863.81;5010836;28;20040;-59
2022/09/09 10:00:17;;;;;;;2.35;0.80;;;;;;;16.33;31.38;100861.84;5009836;28;20467;-58
2022/09/09 10:02:44;;;;;;;0.90;0.75;;;;;;;16.64;30.56;100854.53;5009453;28;20088;-57
2022/09/09 10:05:15;;;;;;;3.42;1.00;;;;;;;17.02;30.02;100859.38;5020389;28;20033;-57
2022/09/09 10:07:43;;;;;;;3.97;0.90;;;;;;;16.98;30.16;100834.44;5014630;28;20674;-54
2022/09/09 10:10:23;;;;;;;2.00;0.90;;;;;;;16.97;30.70;100854.34;5012431;28;20120;-58
2022/09/09 10:12:55;;;;;;;3.95;1.20;;;;;;;16.57;31.40;100863.34;5012484;28;20497;-56
2022/09/09 10:15:23;;;;;;;1.88;1.40;;;;;;;16.13;31.62;100861.75;5015240;28;20076;-60
2022/09/09 10:18:11;;;;;;;2.20;1.45;;;;;;;15.86;32.27;100868.53;5013664;28;20426;-60
2022/09/09 10:21:24;;;;;;;4.32;1.60;;;;;;;15.54;32.66;100861.38;5015017;28;20033;-54
2022/09/09 10:24:11;;;;;;;1.70;1.20;;;;;;;15.45;32.37;100868.41;5023993;28;20134;-55
2022/09/09 10:27:03;;;;;;;3.17;1.10;;;;;;;15.15;33.07;100856.53;5015833;28;20041;-59
2022/09/09 10:30:00;;;;;;;2.28;1.25;;;;;;;15.22;32.71;100859.56;5013653;28;20045;-57
2022/09/09 10:32:50;;;;;;;1.50;0.82;;;;;;;15.48;31.99;100857.34;5022922;28;20048;-57
2022/09/09 10:36:02;;;;;;;2.15;1.10;;;;;;;15.92;31.85;100857.25;5019836;28;20136;-58
2022/09/09 10:38:57;;;;;;;4.50;1.25;;;;;;;16.52;31.35;100857.50;5031006;28;20037;-62
2022/09/09 10:41:51;;;;;;;3.08;1.00;;;;;;;16.48;31.73;100874.00;4985233;28;20574;-57
2022/09/09 10:44:41;;;;;;;1.95;1.02;;;;;;;16.29;31.99;100865.81;5014632;28;20543;-58
2022/09/09 10:47:44;;;;;;;2.15;1.10;;;;;;;16.08;32.53;100874.81;5013836;28;20474;-59
2022/09/09 10:50:24;;;;;;;3.17;0.90;;;;;;;16.19;32.59;100869.34;5018970;28;20033;-56
2022/09/09 10:52:53;;;;;;;2.63;0.80;;;;;;;16.11;32.67;100874.53;5031601;28;20029;-59
2022/09/09 10:55:25;;;;;;;1.95;0.80;;;;;;;15.73;32.68;100849.84;5032446;28;20191;-56
2022/09/09 10:57:53;;;;;;;1.08;0.73;;;;;;;15.17;32.70;100802.44;5030966;28;20037;-58
2022/09/09 11:00:21;;;;;;;1.40;0.80;;;;;;;15.39;33.19;100870.75;5017104;28;20044;-59
2022/09/09 11:03:03;;;;;;;1.13;0.68;;;;;;;15.35;33.44;100871.03;5013716;28;20026;-62
2022/09/09 11:05:52;;;;;;;0.85;0.80;;;;;;;15.24;33.45;100864.81;5028394;28;20029;-59
2022/09/09 11:08:18;;;;;;;2.67;0.55;;;;;;;15.06;32.98;100866.22;5032955;28;20049;-56
2022/09/09 11:11:03;;;;;;;1.92;0.93;;;;;;;15.17;33.29;100868.03;5029943;28;20026;-54
2022/09/09 11:13:51;;;;;;;2.00;1.10;;;;;;;15.57;32.77;100862.97;5032676;28;20390;-64
2022/09/09 11:16:25;;;;;;;2.72;1.20;;;;;;;15.92;31.76;100865.34;5017855;28;20346;-62
2022/09/09 11:19:02;;;;;;;3.33;0.98;;;;;;;16.18;30.96;100867.63;5028851;28;20421;-57
2022/09/09 11:21:40;;;;;;;1.88;1.00;;;;;;;16.35;30.99;100859.84;5030546;28;20397;-57
2022/09/09 11:24:22;;;;;;;3.00;1.20;;;;;;;16.30;31.02;100867.53;5011493;28;20121;-54
2022/09/09 11:26:52;;;;;;;3.63;1.27;;;;;;;16.02;31.85;100865.38;5012608;28;20026;-60
2022/09/09 11:29:36;;;;;;;3.53;0.90;;;;;;;15.82;32.03;100866.25;5017431;28;20069;-58
2022/09/09 11:32:18;;;;;;;3.45;1.00;;;;;;;15.73;32.39;100873.31;5024592;28;20036;-58
2022/09/09 11:35:05;;;;;;;1.77;1.08;;;;;;;15.54;32.39;100876.69;5023242;28;20447;-58
2022/09/09 11:37:34;;;;;;;2.20;1.00;;;;;;;15.11;32.68;100873.06;5031606;28;20044;-59
2022/09/09 11:40:08;;;;;;;2.72;1.10;;;;;;;14.91;33.05;100876.44;5025157;28;20033;-59
2022/09/09 11:42:34;;;;;;;2.08;1.13;;;;;;;14.71;33.04;100877.22;5013312;28;20044;-55
2022/09/09 11:45:10;;;;;;;3.17;1.10;;;;;;;14.42;33.56;100851.63;5016290;28;20037;-59
2022/09/09 11:47:37;;;;;;;1.08;0.73;;;;;;;14.13;33.74;100846.72;5017070;28;20033;-62
2022/09/09 11:50:14;;;;;;;3.13;0.80;;;;;;;14.38;34.24;100877.09;5029286;28;20036;-58
2022/09/09 11:52:45;;;;;;;1.27;0.98;;;;;;;14.51;34.80;100866.19;5029983;28;20378;-57